Time;durP1;ratioP1;P1;durP2;ratioP2;P2;SDS_P1;SDS_P2;PMS_P1;PMS_P2;Temp;Humidity;BMP_temperature;BMP_pressure;BME280_temperature;BME280_humidity;BME280_pressure;Samples;Min_cycle;Max_cycle;Signal;HPM_P1;HPM_P2
2023/03/10 00:01:35;;;;;;;15.00;10.02;;;;;;;;;;5043419;28;20037;-61
2023/03/10 00:04:02;;;;;;;19.15;11.27;;;;;;;;;;5034216;28;20523;-61
2023/03/10 00:06:31;;;;;;;18.65;11.18;;;;;;;;;;5045311;28;20033;-61
2023/03/10 00:08:58;;;;;;;19.63;11.85;;;;;;;;;;5045495;28;20402;-61
2023/03/10 00:11:24;;;;;;;16.67;10.25;;;;;;;;;;5040981;28;20049;-62
2023/03/10 00:13:51;;;;;;;18.50;11.30;;;;;;;;;;5044611;28;20474;-62
2023/03/10 00:16:21;;;;;;;17.15;11.02;;;;;;;;;;5041479;28;20514;-62
2023/03/10 00:18:48;;;;;;;19.08;10.75;;;;;;;;;;5045621;28;20029;-62
2023/03/10 00:21:15;;;;;;;15.05;10.57;;;;;;;;;;5043344;28;20136;-61
2023/03/10 00:23:41;;;;;;;21.73;11.43;;;;;;;;;;5044237;28;20061;-62
2023/03/10 00:26:09;;;;;;;18.30;9.90;;;;;;;;;;5039640;28;20060;-62
2023/03/10 00:28:35;;;;;;;20.35;11.15;;;;;;;;;;5043248;28;20479;-61
2023/03/10 00:31:03;;;;;;;19.70;11.85;;;;;;;;;;5044498;28;20452;-62
2023/03/10 00:33:30;;;;;;;19.85;11.38;;;;;;;;;;5023052;28;20049;-61
2023/03/10 00:36:10;;;;;;;18.30;11.55;;;;;;;;;;5042030;28;20080;-62
2023/03/10 00:38:37;;;;;;;20.52;11.02;;;;;;;;;;5041016;28;20040;-62
2023/03/10 00:41:05;;;;;;;16.58;11.43;;;;;;;;;;5044204;28;20036;-61
2023/03/10 00:43:31;;;;;;;23.45;12.73;;;;;;;;;;5050060;28;20518;-61
2023/03/10 00:45:57;;;;;;;19.27;12.13;;;;;;;;;;5045382;28;20036;-61
2023/03/10 00:48:24;;;;;;;18.23;11.52;;;;;;;;;;5045529;28;20473;-62
2023/03/10 00:50:50;;;;;;;21.02;13.40;;;;;;;;;;5044398;28;20047;-61
2023/03/10 00:53:16;;;;;;;20.25;12.82;;;;;;;;;;5042735;28;20119;-61
2023/03/10 00:55:42;;;;;;;21.58;13.00;;;;;;;;;;5045047;28;20056;-62
2023/03/10 00:58:08;;;;;;;24.80;15.57;;;;;;;;;;5020094;28;20121;-62
2023/03/10 01:00:34;;;;;;;25.65;14.13;;;;;;;;;;5041519;28;20049;-61
2023/03/10 01:03:01;;;;;;;26.80;16.55;;;;;;;;;;5045492;28;20029;-61
2023/03/10 01:05:27;;;;;;;29.40;15.13;;;;;;;;;;5037665;28;20045;-61
2023/03/10 01:07:54;;;;;;;23.33;14.68;;;;;;;;;;5041098;28;20049;-61
2023/03/10 01:10:20;;;;;;;26.63;15.65;;;;;;;;;;5041467;28;20045;-61
2023/03/10 01:12:46;;;;;;;25.48;15.57;;;;;;;;;;5028823;28;20044;-61
2023/03/10 01:15:13;;;;;;;26.05;15.23;;;;;;;;;;5045180;28;20043;-61
2023/03/10 01:17:39;;;;;;;21.85;13.95;;;;;;;;;;5047389;28;20053;-62
2023/03/10 01:20:08;;;;;;;22.15;15.35;;;;;;;;;;5043308;28;20399;-62
2023/03/10 01:22:38;;;;;;;24.33;15.15;;;;;;;;;;5046300;28;20092;-62
2023/03/10 01:25:05;;;;;;;26.38;15.90;;;;;;;;;;5027817;28;20044;-61
2023/03/10 01:27:35;;;;;;;22.33;14.82;;;;;;;;;;5028770;28;20072;-62
2023/03/10 01:30:08;;;;;;;23.40;14.10;;;;;;;;;;5025318;28;20065;-62
2023/03/10 01:32:35;;;;;;;22.35;14.27;;;;;;;;;;5012247;28;20041;-61
2023/03/10 01:35:03;;;;;;;19.33;11.95;;;;;;;;;;5044388;28;20059;-62
2023/03/10 01:37:29;;;;;;;19.90;13.07;;;;;;;;;;5038842;28;20067;-62
2023/03/10 01:39:59;;;;;;;15.73;10.82;;;;;;;;;;5031626;28;20081;-61
2023/03/10 01:42:27;;;;;;;15.27;10.57;;;;;;;;;;5019830;28;20439;-62
2023/03/10 01:45:29;;;;;;;15.85;10.05;;;;;;;;;;4995368;28;20087;-62
2023/03/10 01:47:56;;;;;;;14.40;9.00;;;;;;;;;;4970918;28;20520;-62
2023/03/10 01:50:26;;;;;;;15.23;9.88;;;;;;;;;;5030234;28;20049;-62
2023/03/10 01:52:57;;;;;;;16.05;9.85;;;;;;;;;;5011819;28;20033;-62
2023/03/10 01:55:29;;;;;;;16.83;10.52;;;;;;;;;;5012589;28;20514;-62
2023/03/10 01:57:56;;;;;;;16.70;9.98;;;;;;;;;;5037502;28;20043;-62
2023/03/10 02:00:23;;;;;;;17.92;10.32;;;;;;;;;;5031701;28;20044;-62
2023/03/10 02:02:49;;;;;;;14.90;10.13;;;;;;;;;;5042938;28;20073;-62
2023/03/10 02:05:16;;;;;;;15.38;10.32;;;;;;;;;;5046586;28;20343;-61
2023/03/10 02:07:42;;;;;;;15.73;11.10;;;;;;;;;;5047665;28;20557;-62
2023/03/10 02:10:10;;;;;;;17.65;11.23;;;;;;;;;;5029750;28;20041;-62
2023/03/10 02:12:36;;;;;;;17.63;10.02;;;;;;;;;;5028220;28;20044;-61
2023/03/10 02:15:03;;;;;;;16.80;10.45;;;;;;;;;;5045512;28;20487;-62
2023/03/10 02:17:29;;;;;;;14.52;9.13;;;;;;;;;;5040904;28;20047;-62
2023/03/10 02:20:11;;;;;;;16.10;10.02;;;;;;;;;;5021148;28;20051;-62
2023/03/10 02:22:38;;;;;;;13.57;8.82;;;;;;;;;;5042826;28;20092;-62
2023/03/10 02:25:07;;;;;;;16.52;10.32;;;;;;;;;;5046557;28;20592;-61
2023/03/10 02:27:34;;;;;;;15.52;9.07;;;;;;;;;;5049441;28;20036;-61
2023/03/10 02:30:16;;;;;;;15.48;8.48;;;;;;;;;;5024349;28;20033;-61
2023/03/10 02:32:44;;;;;;;17.15;10.48;;;;;;;;;;5042028;28;20048;-62
2023/03/10 02:35:11;;;;;;;19.58;9.88;;;;;;;;;;5042896;28;20036;-62
2023/03/10 02:37:38;;;;;;;18.90;10.20;;;;;;;;;;5042979;28;20045;-62
2023/03/10 02:40:24;;;;;;;14.45;9.20;;;;;;;;;;5044851;28;20175;-61
2023/03/10 02:42:51;;;;;;;17.73;10.05;;;;;;;;;;5040229;28;20144;-62
2023/03/10 02:45:18;;;;;;;17.83;9.60;;;;;;;;;;5046068;28;20033;-62
2023/03/10 02:47:44;;;;;;;19.42;11.57;;;;;;;;;;5032094;28;20052;-61
2023/03/10 02:50:10;;;;;;;18.77;11.18;;;;;;;;;;5046344;28;20037;-61
2023/03/10 02:52:43;;;;;;;17.30;10.43;;;;;;;;;;5044508;28;20447;-61
2023/03/10 02:55:14;;;;;;;17.05;10.25;;;;;;;;;;5048559;28;20118;-62
2023/03/10 02:57:40;;;;;;;16.95;9.88;;;;;;;;;;5040093;28;20176;-61
2023/03/10 03:00:07;;;;;;;17.40;10.27;;;;;;;;;;5039380;28;20175;-62
2023/03/10 03:02:33;;;;;;;16.05;10.65;;;;;;;;;;5041044;28;20041;-62
2023/03/10 03:05:00;;;;;;;12.32;9.00;;;;;;;;;;5048747;28;20495;-61
2023/03/10 03:07:27;;;;;;;14.80;8.40;;;;;;;;;;5044602;28;20175;-61
2023/03/10 03:09:53;;;;;;;18.63;9.63;;;;;;;;;;5028231;28;20052;-62
2023/03/10 03:12:19;;;;;;;14.57;10.35;;;;;;;;;;5045449;28;20235;-62
2023/03/10 03:14:46;;;;;;;18.83;9.48;;;;;;;;;;5047038;28;20040;-62
2023/03/10 03:17:12;;;;;;;14.52;9.35;;;;;;;;;;5047713;28;20124;-62
2023/03/10 03:19:38;;;;;;;16.40;10.15;;;;;;;;;;5027919;28;20088;-61
2023/03/10 03:22:04;;;;;;;16.00;10.43;;;;;;;;;;5045705;28;20514;-61
2023/03/10 03:24:31;;;;;;;17.30;10.75;;;;;;;;;;5044684;28;20039;-62
2023/03/10 03:26:57;;;;;;;18.80;11.60;;;;;;;;;;5048693;28;20048;-61
2023/03/10 03:29:23;;;;;;;17.13;11.00;;;;;;;;;;5045480;28;20048;-61
2023/03/10 03:31:50;;;;;;;18.83;11.93;;;;;;;;;;5043461;28;20045;-62
2023/03/10 03:34:19;;;;;;;21.33;11.35;;;;;;;;;;5041169;28;20091;-62
2023/03/10 03:36:45;;;;;;;17.27;11.00;;;;;;;;;;5049061;28;20095;-62
2023/03/10 03:39:16;;;;;;;20.70;12.30;;;;;;;;;;5038491;28;20037;-61
2023/03/10 03:41:42;;;;;;;16.48;11.73;;;;;;;;;;5046629;28;20498;-62
2023/03/10 03:44:08;;;;;;;20.92;12.60;;;;;;;;;;5047062;28;20036;-62
2023/03/10 03:46:35;;;;;;;18.05;12.18;;;;;;;;;;5047280;28;20044;-62
2023/03/10 03:49:01;;;;;;;20.55;12.77;;;;;;;;;;5044330;28;20084;-62
2023/03/10 03:51:27;;;;;;;20.17;13.30;;;;;;;;;;5042890;28;20127;-62
2023/03/10 03:53:53;;;;;;;23.40;14.90;;;;;;;;;;5044727;28;20656;-61
2023/03/10 03:56:19;;;;;;;21.35;13.10;;;;;;;;;;5046885;28;20450;-61
2023/03/10 03:58:45;;;;;;;22.60;13.40;;;;;;;;;;5039570;28;20116;-61
2023/03/10 04:01:11;;;;;;;20.33;12.02;;;;;;;;;;5047805;28;20534;-61
2023/03/10 04:03:38;;;;;;;20.15;13.32;;;;;;;;;;5042874;28;20041;-61
2023/03/10 04:06:06;;;;;;;21.45;13.70;;;;;;;;;;5037971;28;20041;-61
2023/03/10 04:08:32;;;;;;;19.92;12.77;;;;;;;;;;5042015;28;20037;-62
2023/03/10 04:10:58;;;;;;;24.33;13.65;;;;;;;;;;5044060;28;20099;-62
2023/03/10 04:13:24;;;;;;;19.30;12.73;;;;;;;;;;5042317;28;20080;-61
2023/03/10 04:15:57;;;;;;;26.05;14.50;;;;;;;;;;5045041;28;20128;-61
2023/03/10 04:18:24;;;;;;;19.58;13.90;;;;;;;;;;5039335;28;20491;-61
2023/03/10 04:20:50;;;;;;;23.40;14.20;;;;;;;;;;5043053;28;20045;-61
2023/03/10 04:23:16;;;;;;;22.88;13.57;;;;;;;;;;5045451;28;20463;-62
2023/03/10 04:25:42;;;;;;;22.40;13.00;;;;;;;;;;5044272;28;20233;-61
2023/03/10 04:28:09;;;;;;;19.67;11.73;;;;;;;;;;5014232;28;20029;-62
2023/03/10 04:30:36;;;;;;;17.80;11.85;;;;;;;;;;5036241;28;20056;-62
2023/03/10 04:33:02;;;;;;;24.30;12.90;;;;;;;;;;5035269;28;20049;-61
2023/03/10 04:35:28;;;;;;;22.00;12.88;;;;;;;;;;5041388;28;20175;-61
2023/03/10 04:37:55;;;;;;;21.88;13.52;;;;;;;;;;5042655;28;20040;-61
2023/03/10 04:40:21;;;;;;;19.17;13.70;;;;;;;;;;5040029;28;20360;-62
2023/03/10 04:42:47;;;;;;;21.48;13.52;;;;;;;;;;5043487;28;20068;-61
2023/03/10 04:45:13;;;;;;;21.55;14.05;;;;;;;;;;5034732;28;20566;-61
2023/03/10 04:47:39;;;;;;;21.92;13.88;;;;;;;;;;5028802;28;20040;-61
2023/03/10 04:50:06;;;;;;;23.73;13.77;;;;;;;;;;5014282;28;20116;-61
2023/03/10 04:52:32;;;;;;;21.20;13.65;;;;;;;;;;5042591;28;20178;-62
2023/03/10 04:54:58;;;;;;;22.30;14.63;;;;;;;;;;5037157;28;20068;-61
2023/03/10 04:57:24;;;;;;;23.98;16.45;;;;;;;;;;5037484;28;20090;-61
2023/03/10 04:59:51;;;;;;;23.88;14.70;;;;;;;;;;5037231;28;20048;-61
2023/03/10 05:02:17;;;;;;;23.90;15.57;;;;;;;;;;5027555;28;20044;-61
2023/03/10 05:04:43;;;;;;;24.85;15.60;;;;;;;;;;5042090;28;20041;-62
2023/03/10 05:07:09;;;;;;;27.52;16.38;;;;;;;;;;5039848;28;20033;-61
2023/03/10 05:09:36;;;;;;;24.00;14.20;;;;;;;;;;5036271;28;20033;-61
2023/03/10 05:12:02;;;;;;;22.17;14.90;;;;;;;;;;5047708;28;20086;-62
2023/03/10 05:14:28;;;;;;;27.33;15.98;;;;;;;;;;5023862;28;20127;-62
2023/03/10 05:16:54;;;;;;;27.42;16.05;;;;;;;;;;5045514;28;20495;-61
2023/03/10 05:19:20;;;;;;;27.27;15.15;;;;;;;;;;5036865;28;20037;-62
2023/03/10 05:21:46;;;;;;;25.70;14.65;;;;;;;;;;5044890;28;20041;-62
2023/03/10 05:24:13;;;;;;;30.95;17.55;;;;;;;;;;5044904;28;20512;-62
2023/03/10 05:26:39;;;;;;;27.65;16.73;;;;;;;;;;5029278;28;20415;-61
2023/03/10 05:29:05;;;;;;;29.38;18.63;;;;;;;;;;5045867;28;20037;-61
2023/03/10 05:31:31;;;;;;;31.67;18.48;;;;;;;;;;5040828;28;20111;-62
2023/03/10 05:33:57;;;;;;;29.60;18.63;;;;;;;;;;5044992;28;20049;-62
2023/03/10 05:36:23;;;;;;;34.35;20.25;;;;;;;;;;5039657;28;20045;-62
2023/03/10 05:38:50;;;;;;;35.47;20.63;;;;;;;;;;5042664;28;20041;-62
2023/03/10 05:41:16;;;;;;;35.85;21.08;;;;;;;;;;5018409;28;20068;-62
2023/03/10 05:43:42;;;;;;;38.45;22.08;;;;;;;;;;5044974;28;20038;-62
2023/03/10 05:46:09;;;;;;;32.53;19.73;;;;;;;;;;5013661;28;20487;-62
2023/03/10 05:48:35;;;;;;;33.83;19.02;;;;;;;;;;5046437;28;20432;-62
2023/03/10 05:51:06;;;;;;;32.97;19.42;;;;;;;;;;5011945;28;20037;-62
2023/03/10 05:53:33;;;;;;;34.10;19.95;;;;;;;;;;5046252;28;20532;-62
2023/03/10 05:56:00;;;;;;;36.22;20.05;;;;;;;;;;5046947;28;20044;-62
2023/03/10 05:58:26;;;;;;;34.35;20.40;;;;;;;;;;5050826;28;20107;-62
2023/03/10 06:00:52;;;;;;;38.83;23.52;;;;;;;;;;5046262;28;20095;-62
2023/03/10 06:03:19;;;;;;;37.72;22.92;;;;;;;;;;5045858;28;20041;-62
2023/03/10 06:05:45;;;;;;;35.38;18.23;;;;;;;;;;5008841;28;20371;-62
2023/03/10 06:08:11;;;;;;;34.53;20.08;;;;;;;;;;5045925;28;20039;-62
2023/03/10 06:10:37;;;;;;;36.03;21.45;;;;;;;;;;5041548;28;20478;-63
2023/03/10 06:13:04;;;;;;;31.67;19.88;;;;;;;;;;5043314;28;20052;-62
2023/03/10 06:15:30;;;;;;;30.70;18.75;;;;;;;;;;5035892;28;20056;-63
2023/03/10 06:17:56;;;;;;;32.38;19.20;;;;;;;;;;5044050;28;20045;-63
2023/03/10 06:20:22;;;;;;;30.65;18.10;;;;;;;;;;5039895;28;20040;-62
2023/03/10 06:22:50;;;;;;;32.55;17.80;;;;;;;;;;5043652;28;20468;-63
2023/03/10 06:25:16;;;;;;;24.58;15.85;;;;;;;;;;5046340;28;20502;-62
2023/03/10 06:27:43;;;;;;;32.22;17.83;;;;;;;;;;5045248;28;20463;-62
2023/03/10 06:30:09;;;;;;;23.35;14.70;;;;;;;;;;5029883;28;20399;-63
2023/03/10 06:32:35;;;;;;;30.30;15.35;;;;;;;;;;5047431;28;20041;-62
2023/03/10 06:35:02;;;;;;;25.80;16.35;;;;;;;;;;5046760;28;20042;-62
2023/03/10 06:37:28;;;;;;;24.25;14.38;;;;;;;;;;5044034;28;20071;-62
2023/03/10 06:39:54;;;;;;;23.67;14.75;;;;;;;;;;5044694;28;20041;-62
2023/03/10 06:42:20;;;;;;;27.40;13.80;;;;;;;;;;5022431;28;20142;-63
2023/03/10 06:44:46;;;;;;;23.98;15.82;;;;;;;;;;5040665;28;20071;-62
2023/03/10 06:47:12;;;;;;;23.45;14.13;;;;;;;;;;5037444;28;20046;-62
2023/03/10 06:49:39;;;;;;;22.13;13.40;;;;;;;;;;5041774;28;20048;-62
2023/03/10 06:52:05;;;;;;;23.35;13.85;;;;;;;;;;5024297;28;20037;-62
2023/03/10 06:54:31;;;;;;;25.00;14.73;;;;;;;;;;5026648;28;20513;-62
2023/03/10 06:56:57;;;;;;;18.58;13.02;;;;;;;;;;5041925;28;20633;-63
2023/03/10 06:59:23;;;;;;;19.40;14.02;;;;;;;;;;5044050;28;20041;-62
2023/03/10 07:01:49;;;;;;;20.55;13.15;;;;;;;;;;5023906;28;20450;-62
2023/03/10 07:04:16;;;;;;;20.85;12.73;;;;;;;;;;5038854;28;20037;-62
2023/03/10 07:06:42;;;;;;;22.02;12.50;;;;;;;;;;5048514;28;20422;-62
2023/03/10 07:09:08;;;;;;;24.00;14.77;;;;;;;;;;5041510;28;20048;-62
2023/03/10 07:11:35;;;;;;;20.88;12.57;;;;;;;;;;5038966;28;20044;-62
2023/03/10 07:14:01;;;;;;;20.50;12.98;;;;;;;;;;5022740;28;20092;-62
2023/03/10 07:16:27;;;;;;;18.60;11.23;;;;;;;;;;5043868;28;20124;-63
2023/03/10 07:18:53;;;;;;;20.20;12.85;;;;;;;;;;5041499;28;20609;-62
2023/03/10 07:21:20;;;;;;;20.80;12.38;;;;;;;;;;5029439;28;20054;-63
2023/03/10 07:23:46;;;;;;;21.90;12.00;;;;;;;;;;5041083;28;20436;-63
2023/03/10 07:26:14;;;;;;;20.17;12.98;;;;;;;;;;5044875;28;20041;-62
2023/03/10 07:28:40;;;;;;;20.60;12.20;;;;;;;;;;5037439;28;20095;-62
2023/03/10 07:31:08;;;;;;;22.42;13.07;;;;;;;;;;5032543;28;20044;-62
2023/03/10 07:33:35;;;;;;;18.65;11.52;;;;;;;;;;5043660;28;20041;-62
2023/03/10 07:36:08;;;;;;;17.95;10.80;;;;;;;;;;5044904;28;20227;-63
2023/03/10 07:38:35;;;;;;;20.02;10.68;;;;;;;;;;5036809;28;20049;-63
2023/03/10 07:41:01;;;;;;;14.52;10.43;;;;;;;;;;5045789;28;20041;-62
2023/03/10 07:43:27;;;;;;;18.58;10.52;;;;;;;;;;5044521;28;20129;-62
2023/03/10 07:45:53;;;;;;;17.92;11.27;;;;;;;;;;5016374;28;20064;-62
2023/03/10 07:48:19;;;;;;;15.85;10.70;;;;;;;;;;5030684;28;20040;-63
2023/03/10 07:50:45;;;;;;;19.10;10.43;;;;;;;;;;5042138;28;20041;-62
2023/03/10 07:53:14;;;;;;;18.27;10.35;;;;;;;;;;5023713;28;20045;-62
2023/03/10 07:55:41;;;;;;;15.75;10.15;;;;;;;;;;5044012;28;20037;-62
2023/03/10 07:58:07;;;;;;;19.63;12.02;;;;;;;;;;5038447;28;20044;-62
2023/03/10 08:00:33;;;;;;;21.20;11.70;;;;;;;;;;5040032;28;20042;-62
2023/03/10 08:02:59;;;;;;;20.98;11.68;;;;;;;;;;5038902;28;20060;-62
2023/03/10 08:05:26;;;;;;;17.80;11.93;;;;;;;;;;5032817;28;20168;-63
2023/03/10 08:07:52;;;;;;;20.90;11.95;;;;;;;;;;5043345;28;20596;-62
2023/03/10 08:10:18;;;;;;;16.48;10.93;;;;;;;;;;5040458;28;20483;-62
2023/03/10 08:12:44;;;;;;;20.25;12.50;;;;;;;;;;5035119;28;20490;-62
2023/03/10 08:15:12;;;;;;;23.23;12.98;;;;;;;;;;5040418;28;20052;-62
2023/03/10 08:17:38;;;;;;;17.58;11.20;;;;;;;;;;5045301;28;20076;-62
2023/03/10 08:20:05;;;;;;;17.25;10.57;;;;;;;;;;5044185;28;20203;-62
2023/03/10 08:22:31;;;;;;;18.77;11.27;;;;;;;;;;5044222;28;20501;-62
2023/03/10 08:24:58;;;;;;;21.70;12.57;;;;;;;;;;5041528;28;20044;-62
2023/03/10 08:27:25;;;;;;;16.67;11.10;;;;;;;;;;5022351;28;20064;-62
2023/03/10 08:29:51;;;;;;;18.08;10.90;;;;;;;;;;5040813;28;20648;-62
2023/03/10 08:32:18;;;;;;;17.27;11.75;;;;;;;;;;5043637;28;20456;-62
2023/03/10 08:34:44;;;;;;;21.88;12.00;;;;;;;;;;5034741;28;20052;-63
2023/03/10 08:37:11;;;;;;;22.73;12.70;;;;;;;;;;5040342;28;20075;-62
2023/03/10 08:39:37;;;;;;;23.90;14.52;;;;;;;;;;5034810;28;20487;-62
2023/03/10 08:42:03;;;;;;;22.98;12.32;;;;;;;;;;5010024;28;20072;-63
2023/03/10 08:44:29;;;;;;;19.77;12.65;;;;;;;;;;5033104;28;20166;-62
2023/03/10 08:46:55;;;;;;;24.88;12.95;;;;;;;;;;5038422;28;20045;-63
2023/03/10 08:49:21;;;;;;;24.30;13.90;;;;;;;;;;5027561;28;20044;-62
2023/03/10 08:51:48;;;;;;;26.15;14.43;;;;;;;;;;5019040;28;20174;-63
2023/03/10 08:54:16;;;;;;;22.40;11.40;;;;;;;;;;5038083;28;20173;-62
2023/03/10 08:56:42;;;;;;;23.92;13.90;;;;;;;;;;5035717;28;20534;-62
2023/03/10 08:59:08;;;;;;;25.33;13.07;;;;;;;;;;5008270;28;20041;-62
2023/03/10 09:01:35;;;;;;;22.08;13.45;;;;;;;;;;5010975;28;20087;-62
2023/03/10 09:04:02;;;;;;;22.55;14.10;;;;;;;;;;5025457;28;20041;-62
2023/03/10 09:06:29;;;;;;;22.33;14.05;;;;;;;;;;5042615;28;20041;-62
2023/03/10 09:08:55;;;;;;;22.00;13.48;;;;;;;;;;5041910;28;20056;-62
2023/03/10 09:11:24;;;;;;;24.02;14.32;;;;;;;;;;5041538;28;20142;-62
2023/03/10 09:13:51;;;;;;;20.92;13.48;;;;;;;;;;5038399;28;20045;-62
2023/03/10 09:16:17;;;;;;;23.00;13.35;;;;;;;;;;5045073;28;20040;-62
2023/03/10 09:18:44;;;;;;;23.77;13.18;;;;;;;;;;5046367;28;20055;-63
2023/03/10 09:21:11;;;;;;;22.40;14.23;;;;;;;;;;5046814;28;20049;-62
2023/03/10 09:23:37;;;;;;;19.60;14.07;;;;;;;;;;5030980;28;20579;-65
2023/03/10 09:26:04;;;;;;;21.92;14.32;;;;;;;;;;5031659;28;20053;-62
2023/03/10 09:28:30;;;;;;;21.40;13.45;;;;;;;;;;5026894;28;20084;-63
2023/03/10 09:30:56;;;;;;;25.95;14.90;;;;;;;;;;5034124;28;20051;-62
2023/03/10 09:33:22;;;;;;;21.88;13.25;;;;;;;;;;5025223;28;20048;-62
2023/03/10 09:35:49;;;;;;;22.05;13.98;;;;;;;;;;5026449;28;20045;-62
2023/03/10 09:38:16;;;;;;;21.60;12.95;;;;;;;;;;5022500;28;20862;-62
2023/03/10 09:40:45;;;;;;;20.50;10.82;;;;;;;;;;5027884;28;20081;-62
2023/03/10 09:43:14;;;;;;;19.20;11.02;;;;;;;;;;5029466;28;20098;-62
2023/03/10 09:45:51;;;;;;;20.48;10.70;;;;;;;;;;5026606;28;20042;-62
2023/03/10 09:48:36;;;;;;;18.73;11.10;;;;;;;;;;5020689;28;20041;-63
2023/03/10 09:51:08;;;;;;;17.10;10.35;;;;;;;;;;5007135;28;20459;-63
2023/03/10 09:53:47;;;;;;;22.33;12.00;;;;;;;;;;5006125;28;20054;-63
2023/03/10 09:56:15;;;;;;;22.88;12.07;;;;;;;;;;5023419;28;20428;-63
2023/03/10 09:58:43;;;;;;;19.73;11.15;;;;;;;;;;5025443;28;20042;-63
2023/03/10 10:01:16;;;;;;;20.13;13.27;;;;;;;;;;5031076;28;20038;-63
2023/03/10 10:03:45;;;;;;;22.80;13.05;;;;;;;;;;5004946;28;20089;-63
2023/03/10 10:06:16;;;;;;;23.23;13.55;;;;;;;;;;5040617;28;20047;-63
2023/03/10 10:08:45;;;;;;;23.23;13.85;;;;;;;;;;5032901;28;20152;-63
2023/03/10 10:11:15;;;;;;;17.85;12.32;;;;;;;;;;5024447;28;20037;-63
2023/03/10 10:13:42;;;;;;;22.77;14.43;;;;;;;;;;5024879;28;20041;-63
2023/03/10 10:16:20;;;;;;;20.98;13.65;;;;;;;;;;5025901;28;20135;-63
2023/03/10 10:18:51;;;;;;;27.45;15.77;;;;;;;;;;5025729;28;20045;-63
2023/03/10 10:21:35;;;;;;;24.90;14.50;;;;;;;;;;5018545;28;20042;-63
2023/03/10 10:24:01;;;;;;;26.35;15.73;;;;;;;;;;5039101;28;20493;-63
2023/03/10 10:26:27;;;;;;;25.33;14.73;;;;;;;;;;5026182;28;20059;-63
2023/03/10 10:28:57;;;;;;;25.08;13.52;;;;;;;;;;5045752;28;20067;-63
2023/03/10 10:31:25;;;;;;;20.65;13.25;;;;;;;;;;5035757;28;20044;-63
2023/03/10 10:33:52;;;;;;;21.38;13.00;;;;;;;;;;5043191;28;20087;-63
2023/03/10 10:36:19;;;;;;;22.77;13.95;;;;;;;;;;5043859;28;20307;-63
2023/03/10 10:38:49;;;;;;;22.58;13.32;;;;;;;;;;5034916;28;20049;-63
2023/03/10 10:41:24;;;;;;;23.45;14.35;;;;;;;;;;5045133;28;20082;-63
2023/03/10 10:43:51;;;;;;;28.02;14.77;;;;;;;;;;5037796;28;20123;-63
2023/03/10 10:46:24;;;;;;;26.38;16.35;;;;;;;;;;5023738;28;20129;-63
2023/03/10 10:49:00;;;;;;;25.60;16.70;;;;;;;;;;5040887;28;20037;-63
2023/03/10 10:51:28;;;;;;;26.83;16.13;;;;;;;;;;5045610;28;20119;-63
2023/03/10 10:53:58;;;;;;;27.45;16.33;;;;;;;;;;5042757;28;20045;-63
2023/03/10 10:56:27;;;;;;;30.17;18.60;;;;;;;;;;5049622;28;20120;-63
2023/03/10 10:59:12;;;;;;;28.33;17.02;;;;;;;;;;5039508;28;20045;-63
2023/03/10 11:01:48;;;;;;;28.20;15.80;;;;;;;;;;5043864;28;20525;-63
2023/03/10 11:04:15;;;;;;;32.13;18.13;;;;;;;;;;5039972;28;20207;-63
2023/03/10 11:06:41;;;;;;;24.33;16.85;;;;;;;;;;5045423;28;20044;-63
2023/03/10 11:09:18;;;;;;;34.45;19.35;;;;;;;;;;4978057;28;20413;-63
2023/03/10 11:11:44;;;;;;;32.25;18.27;;;;;;;;;;5043880;28;20048;-63
2023/03/10 11:14:16;;;;;;;28.88;17.10;;;;;;;;;;5025559;28;20120;-63
2023/03/10 11:17:01;;;;;;;30.77;18.50;;;;;;;;;;5039120;28;20618;-63
2023/03/10 11:19:34;;;;;;;30.27;19.02;;;;;;;;;;5043170;28;20174;-63
2023/03/10 11:22:04;;;;;;;29.67;18.50;;;;;;;;;;5026161;28;20685;-63
2023/03/10 11:24:37;;;;;;;27.65;17.33;;;;;;;;;;5042479;28;20045;-63
2023/03/10 11:27:09;;;;;;;34.22;17.13;;;;;;;;;;5042722;28;20033;-63
2023/03/10 11:29:35;;;;;;;30.90;17.70;;;;;;;;;;5033911;28;20048;-63
2023/03/10 11:32:20;;;;;;;28.60;18.25;;;;;;;;;;5042806;28;20049;-63
2023/03/10 11:34:52;;;;;;;29.15;17.75;;;;;;;;;;5042405;28;20087;-63
2023/03/10 11:37:39;;;;;;;31.83;18.70;;;;;;;;;;5010639;28;20051;-63
2023/03/10 11:40:06;;;;;;;30.38;17.38;;;;;;;;;;5040407;28;20063;-63
2023/03/10 11:42:32;;;;;;;30.95;19.98;;;;;;;;;;5046900;28;20434;-63
2023/03/10 11:45:17;;;;;;;30.88;17.15;;;;;;;;;;5041633;28;20024;-63
2023/03/10 11:47:50;;;;;;;26.40;16.00;;;;;;;;;;5037737;28;20103;-63
2023/03/10 11:50:23;;;;;;;27.40;15.75;;;;;;;;;;5038093;28;20041;-63
2023/03/10 11:52:51;;;;;;;30.95;17.35;;;;;;;;;;5038918;28;20183;-63
2023/03/10 11:55:19;;;;;;;26.77;15.95;;;;;;;;;;5035349;28;20052;-63
2023/03/10 11:57:48;;;;;;;27.45;15.65;;;;;;;;;;5043206;28;20041;-63
2023/03/10 12:00:43;;;;;;;32.15;16.30;;;;;;;;;;5040458;28;20053;-63
2023/03/10 12:03:14;;;;;;;27.55;15.50;;;;;;;;;;5027136;28;20056;-63
2023/03/10 12:05:51;;;;;;;28.70;16.55;;;;;;;;;;5044100;28;20068;-63
2023/03/10 12:08:19;;;;;;;27.52;16.73;;;;;;;;;;5039431;28;20476;-63
2023/03/10 12:10:45;;;;;;;25.27;15.13;;;;;;;;;;5044900;28;20126;-63
2023/03/10 12:13:26;;;;;;;32.13;15.90;;;;;;;;;;5038505;28;20539;-63
2023/03/10 12:15:55;;;;;;;31.58;16.88;;;;;;;;;;5050408;28;20072;-63
2023/03/10 12:18:21;;;;;;;28.85;15.65;;;;;;;;;;5040292;28;20043;-63
2023/03/10 12:21:09;;;;;;;30.58;15.90;;;;;;;;;;5042937;28;20063;-63
2023/03/10 12:23:39;;;;;;;27.15;14.60;;;;;;;;;;5023681;28;20180;-63
2023/03/10 12:26:05;;;;;;;23.23;14.02;;;;;;;;;;5042177;28;20442;-63
2023/03/10 12:28:32;;;;;;;21.80;13.43;;;;;;;;;;5042925;28;20060;-63
2023/03/10 12:31:24;;;;;;;27.67;13.90;;;;;;;;;;5041724;28;20045;-63
2023/03/10 12:33:51;;;;;;;24.58;13.23;;;;;;;;;;5002190;28;20067;-63
2023/03/10 12:36:32;;;;;;;23.83;13.60;;;;;;;;;;5037551;28;20045;-63
2023/03/10 12:38:58;;;;;;;28.70;14.18;;;;;;;;;;5043133;28;20045;-63
2023/03/10 12:41:28;;;;;;;25.80;13.57;;;;;;;;;;5019396;28;20132;-63
2023/03/10 12:44:12;;;;;;;21.30;11.98;;;;;;;;;;5040641;28;20125;-63
2023/03/10 12:46:40;;;;;;;22.23;11.60;;;;;;;;;;5038023;28;20084;-63
2023/03/10 12:49:13;;;;;;;16.95;8.98;;;;;;;;;;5046454;28;20133;-63
2023/03/10 12:51:41;;;;;;;23.92;11.25;;;;;;;;;;5044250;28;20132;-63
2023/03/10 12:54:26;;;;;;;18.30;10.75;;;;;;;;;;5038222;28;20109;-63
2023/03/10 12:57:08;;;;;;;21.05;10.35;;;;;;;;;;5040922;28;20132;-63
2023/03/10 12:59:43;;;;;;;19.88;10.25;;;;;;;;;;5036518;28;20059;-63
2023/03/10 13:02:22;;;;;;;14.88;10.00;;;;;;;;;;5041881;28;20495;-63
2023/03/10 13:04:49;;;;;;;15.20;9.43;;;;;;;;;;5037580;28;20068;-63
2023/03/10 13:07:16;;;;;;;15.02;8.63;;;;;;;;;;5044081;28;20064;-63
2023/03/10 13:09:45;;;;;;;16.05;8.77;;;;;;;;;;5023349;28;20051;-63
2023/03/10 13:12:24;;;;;;;15.85;8.50;;;;;;;;;;5042114;28;20995;-63
2023/03/10 13:14:54;;;;;;;15.30;8.38;;;;;;;;;;5037914;28;20044;-63
2023/03/10 13:17:22;;;;;;;17.42;9.52;;;;;;;;;;5045435;28;20049;-63
2023/03/10 13:19:58;;;;;;;15.27;9.20;;;;;;;;;;5043993;28;20041;-63
2023/03/10 13:22:24;;;;;;;16.45;9.38;;;;;;;;;;5040280;28;20052;-63
2023/03/10 13:24:58;;;;;;;15.90;9.30;;;;;;;;;;5042630;28;20049;-63
2023/03/10 13:27:29;;;;;;;14.10;8.93;;;;;;;;;;5039038;28;20060;-63
2023/03/10 13:30:01;;;;;;;14.38;7.50;;;;;;;;;;5043963;28;20656;-64
2023/03/10 13:32:28;;;;;;;12.73;7.00;;;;;;;;;;5037413;28;20515;-65
2023/03/10 13:34:55;;;;;;;13.55;7.25;;;;;;;;;;5041280;28;20036;-63
2023/03/10 13:37:21;;;;;;;13.32;6.93;;;;;;;;;;5033106;28;20045;-63
2023/03/10 13:39:47;;;;;;;17.58;7.75;;;;;;;;;;5042586;28;20394;-63
2023/03/10 13:42:22;;;;;;;10.75;6.75;;;;;;;;;;5041460;28;20055;-63
2023/03/10 13:44:48;;;;;;;19.92;8.43;;;;;;;;;;5040460;28;20036;-63
2023/03/10 13:47:19;;;;;;;10.02;5.35;;;;;;;;;;5037942;28;20610;-63
2023/03/10 13:49:51;;;;;;;10.40;5.00;;;;;;;;;;5041060;28;20037;-63
2023/03/10 13:52:19;;;;;;;10.00;5.35;;;;;;;;;;5023682;28;20076;-63
2023/03/10 13:54:45;;;;;;;12.32;5.50;;;;;;;;;;5046550;28;20120;-63
2023/03/10 13:57:17;;;;;;;9.75;4.97;;;;;;;;;;5048775;28;20063;-63
2023/03/10 13:59:43;;;;;;;11.07;5.73;;;;;;;;;;5042298;28;20045;-63
2023/03/10 14:02:14;;;;;;;12.60;6.03;;;;;;;;;;5028668;28;20041;-63
2023/03/10 14:04:42;;;;;;;8.07;4.15;;;;;;;;;;5034549;28;20150;-63
2023/03/10 14:07:10;;;;;;;6.25;4.30;;;;;;;;;;5039728;28;20088;-63
2023/03/10 14:09:37;;;;;;;11.93;6.63;;;;;;;;;;5029329;28;20060;-63
2023/03/10 14:12:03;;;;;;;7.35;4.70;;;;;;;;;;5043441;28;20084;-63
2023/03/10 14:14:30;;;;;;;5.78;4.03;;;;;;;;;;5019357;28;20042;-63
2023/03/10 14:16:58;;;;;;;6.13;3.75;;;;;;;;;;5043680;28;20099;-63
2023/03/10 14:19:42;;;;;;;7.07;3.33;;;;;;;;;;5035361;28;20388;-63
2023/03/10 14:22:22;;;;;;;7.45;3.25;;;;;;;;;;5049294;28;20048;-63
2023/03/10 14:24:48;;;;;;;6.07;2.97;;;;;;;;;;5044118;28;20057;-63
2023/03/10 14:27:14;;;;;;;4.40;2.95;;;;;;;;;;5022392;28;20121;-63